Time;durP1;ratioP1;P1;durP2;ratioP2;P2;SDS_P1;SDS_P2;PMS_P1;PMS_P2;Temp;Humidity;BMP_temperature;BMP_pressure;BME280_temperature;BME280_humidity;BME280_pressure;Samples;Min_cycle;Max_cycle;Signal;HPM_P1;HPM_P2
2023/09/25 00:01:16;;;;;;;6.32;3.83;;;8.30;99.90;;;;;;4977466;28;20043;-80
2023/09/25 00:03:42;;;;;;;5.78;4.00;;;8.30;99.90;;;;;;4973001;28;20118;-81
2023/09/25 00:06:08;;;;;;;4.07;3.53;;;8.30;99.90;;;;;;4951359;28;20122;-81
2023/09/25 00:08:35;;;;;;;3.90;3.17;;;8.30;99.90;;;;;;4974327;28;20030;-80
2023/09/25 00:11:00;;;;;;;3.17;2.88;;;8.30;99.90;;;;;;4978148;28;20019;-80
2023/09/25 00:13:26;;;;;;;3.90;3.40;;;8.30;99.90;;;;;;4973063;28;20492;-83
2023/09/25 00:15:52;;;;;;;3.83;3.50;;;8.30;99.90;;;;;;4967823;28;20483;-80
2023/09/25 00:18:18;;;;;;;3.70;3.33;;;8.20;99.90;;;;;;4965077;28;20035;-80
2023/09/25 00:20:44;;;;;;;4.20;3.80;;;8.20;99.90;;;;;;4975722;28;20746;-79
2023/09/25 00:23:09;;;;;;;4.63;3.50;;;8.20;99.90;;;;;;4959116;28;20595;-84
2023/09/25 00:25:35;;;;;;;4.20;3.80;;;8.20;99.90;;;;;;4973288;28;20534;-81
2023/09/25 00:28:02;;;;;;;4.60;4.10;;;8.20;99.90;;;;;;4955249;28;20047;-82
2023/09/25 00:30:28;;;;;;;4.32;3.78;;;8.20;99.90;;;;;;4968407;28;20061;-80
2023/09/25 00:33:12;;;;;;;4.13;3.72;;;8.20;99.90;;;;;;4972976;28;20104;-80
2023/09/25 00:35:42;;;;;;;5.82;4.47;;;8.10;99.90;;;;;;4972362;28;20038;-79
2023/09/25 00:38:08;;;;;;;4.22;3.83;;;8.10;99.90;;;;;;4966661;28;20130;-82
2023/09/25 00:40:33;;;;;;;4.35;3.95;;;8.10;99.90;;;;;;4962942;28;20069;-80
2023/09/25 00:42:59;;;;;;;4.10;3.70;;;8.10;99.90;;;;;;4972545;28;20073;-81
2023/09/25 00:45:25;;;;;;;4.25;3.83;;;8.10;99.90;;;;;;4979959;28;20469;-80
2023/09/25 00:47:52;;;;;;;3.90;3.60;;;8.10;99.90;;;;;;4981961;28;20042;-82
2023/09/25 00:50:19;;;;;;;4.82;3.95;;;8.10;99.90;;;;;;4960042;28;20126;-81
2023/09/25 00:52:45;;;;;;;3.83;3.40;;;8.10;99.90;;;;;;4983494;28;20037;-81
2023/09/25 00:55:15;;;;;;;3.97;3.58;;;8.10;99.90;;;;;;4980587;28;20027;-82
2023/09/25 00:57:43;;;;;;;3.90;3.58;;;8.00;99.90;;;;;;4963804;28;20100;-79
2023/09/25 01:00:11;;;;;;;4.20;3.63;;;8.00;99.90;;;;;;4959066;28;20237;-83
2023/09/25 01:02:38;;;;;;;5.03;3.33;;;8.00;99.90;;;;;;4980818;28;20031;-82
2023/09/25 01:05:11;;;;;;;5.35;3.67;;;8.00;99.90;;;;;;4959425;28;20015;-81
2023/09/25 01:07:37;;;;;;;4.20;3.90;;;8.00;99.90;;;;;;4959665;28;20027;-80
2023/09/25 01:10:14;;;;;;;3.70;3.30;;;7.90;99.90;;;;;;4965151;28;20027;-81
2023/09/25 01:12:44;;;;;;;4.97;3.47;;;7.90;99.90;;;;;;4982656;28;20038;-81
2023/09/25 01:15:10;;;;;;;4.47;3.70;;;7.90;99.90;;;;;;4972282;28;20089;-82
2023/09/25 01:17:36;;;;;;;4.18;3.35;;;7.90;99.90;;;;;;4985170;28;20027;-82
2023/09/25 01:20:13;;;;;;;3.85;3.35;;;7.90;99.90;;;;;;4983826;28;20038;-82
2023/09/25 01:22:44;;;;;;;3.58;3.28;;;7.80;99.90;;;;;;4979235;28;20138;-82
2023/09/25 01:25:12;;;;;;;4.50;3.15;;;7.80;99.90;;;;;;4965563;28;20058;-81
2023/09/25 01:27:39;;;;;;;4.15;3.63;;;7.80;99.90;;;;;;4972620;28;20050;-80
2023/09/25 01:30:08;;;;;;;3.78;3.38;;;7.80;99.90;;;;;;4977259;28;20103;-81
2023/09/25 01:32:35;;;;;;;3.70;3.30;;;7.70;99.90;;;;;;4972251;28;20093;-81
2023/09/25 01:35:02;;;;;;;3.35;3.05;;;7.70;99.90;;;;;;4979116;28;20046;-80
2023/09/25 01:37:28;;;;;;;3.60;3.30;;;7.70;99.90;;;;;;4975791;28;20042;-81
2023/09/25 01:39:55;;;;;;;5.05;3.17;;;7.70;99.90;;;;;;4974923;28;20583;-81
2023/09/25 01:42:21;;;;;;;4.18;3.58;;;7.70;99.90;;;;;;4967336;28;20034;-82
2023/09/25 01:44:47;;;;;;;3.30;3.00;;;7.70;99.90;;;;;;4957400;28;20039;-82
2023/09/25 01:47:13;;;;;;;4.18;3.83;;;7.70;99.90;;;;;;4958252;28;20129;-81
2023/09/25 01:49:39;;;;;;;4.93;3.47;;;7.60;99.90;;;;;;4976526;28;20050;-81
2023/09/25 01:52:07;;;;;;;4.13;3.70;;;7.60;99.90;;;;;;4958884;28;20109;-82
2023/09/25 01:54:34;;;;;;;4.53;3.55;;;7.60;99.90;;;;;;4972366;28;20066;-82
2023/09/25 01:57:01;;;;;;;4.78;3.40;;;7.60;99.90;;;;;;4956738;28;20188;-82
2023/09/25 01:59:26;;;;;;;3.60;3.22;;;7.50;99.90;;;;;;4955451;28;20419;-81
2023/09/25 02:01:52;;;;;;;4.05;3.63;;;7.50;99.90;;;;;;4957502;28;20037;-82
2023/09/25 02:04:18;;;;;;;8.43;3.17;;;7.50;99.90;;;;;;4956466;28;20763;-83
2023/09/25 02:06:45;;;;;;;4.38;3.97;;;7.50;99.90;;;;;;4942648;28;20447;-82
2023/09/25 02:09:11;;;;;;;4.20;3.80;;;7.50;99.90;;;;;;4942931;28;20110;-81
2023/09/25 02:11:37;;;;;;;4.00;3.47;;;7.40;99.90;;;;;;4943335;28;20102;-81
2023/09/25 02:14:04;;;;;;;3.58;3.28;;;7.40;99.90;;;;;;4957315;28;20030;-81
2023/09/25 02:16:30;;;;;;;3.40;3.10;;;7.40;99.90;;;;;;4974599;28;20033;-81
2023/09/25 02:18:56;;;;;;;4.05;3.65;;;7.40;99.90;;;;;;4975088;28;20090;-82
2023/09/25 02:21:22;;;;;;;3.25;2.95;;;7.40;99.90;;;;;;4943936;28;20500;-83
2023/09/25 02:24:07;;;;;;;5.28;3.67;;;7.40;99.90;;;;;;4969342;28;20154;-83
2023/09/25 02:26:32;;;;;;;3.72;3.38;;;7.40;99.90;;;;;;4957488;28;20062;-84
2023/09/25 02:28:58;;;;;;;3.13;2.92;;;7.30;99.90;;;;;;4956545;28;20058;-83
2023/09/25 02:31:25;;;;;;;4.03;3.55;;;7.30;99.90;;;;;;4973278;28;20034;-83
2023/09/25 02:33:51;;;;;;;4.25;3.42;;;7.30;99.90;;;;;;4973053;28;20130;-82
2023/09/25 02:36:16;;;;;;;4.07;2.92;;;7.30;99.90;;;;;;4972517;28;20126;-81
2023/09/25 02:38:43;;;;;;;4.97;2.90;;;7.30;99.90;;;;;;4955803;28;20036;-82
2023/09/25 02:41:09;;;;;;;3.25;2.95;;;7.30;99.90;;;;;;4972374;28;20035;-83
2023/09/25 02:43:36;;;;;;;3.42;3.03;;;7.30;99.90;;;;;;4960659;28;20065;-83
2023/09/25 02:46:03;;;;;;;4.43;3.83;;;7.30;99.90;;;;;;4971802;28;20071;-81
2023/09/25 02:48:28;;;;;;;4.35;3.38;;;7.20;99.90;;;;;;4956693;28;20061;-82
2023/09/25 02:50:54;;;;;;;3.72;3.42;;;7.20;99.90;;;;;;4956705;28;20057;-81
2023/09/25 02:53:20;;;;;;;3.75;3.03;;;7.20;99.90;;;;;;4967835;28;20034;-80
2023/09/25 02:55:49;;;;;;;4.05;3.70;;;7.20;99.90;;;;;;4963897;28;20058;-79
2023/09/25 02:58:16;;;;;;;3.85;3.38;;;7.10;99.90;;;;;;4957609;28;20031;-81
2023/09/25 03:00:41;;;;;;;4.45;3.50;;;7.10;99.90;;;;;;4974540;28;20034;-80
2023/09/25 03:03:07;;;;;;;4.47;4.03;;;7.10;99.90;;;;;;4969126;28;20031;-79
2023/09/25 03:05:33;;;;;;;4.28;3.83;;;7.10;99.90;;;;;;4975390;28;20117;-80
2023/09/25 03:08:01;;;;;;;4.65;3.90;;;7.10;99.90;;;;;;4957053;28;20145;-79
2023/09/25 03:10:26;;;;;;;4.28;3.60;;;7.10;99.90;;;;;;4940241;28;20048;-81
2023/09/25 03:12:52;;;;;;;7.80;3.65;;;7.10;99.90;;;;;;4937282;29;20023;-80
2023/09/25 03:15:18;;;;;;;3.83;3.45;;;7.00;99.90;;;;;;4970589;28;20504;-81
2023/09/25 03:17:44;;;;;;;4.50;4.10;;;7.10;99.90;;;;;;4967238;28;20039;-79
2023/09/25 03:20:15;;;;;;;7.40;4.70;;;7.10;99.90;;;;;;4956436;28;20396;-81
2023/09/25 03:22:45;;;;;;;4.50;4.10;;;7.10;99.90;;;;;;4954935;28;20038;-81
2023/09/25 03:25:15;;;;;;;4.78;4.03;;;7.10;99.90;;;;;;4956251;28;20601;-80
2023/09/25 03:27:40;;;;;;;5.32;4.22;;;7.10;99.90;;;;;;4955795;28;20038;-82
2023/09/25 03:30:07;;;;;;;5.47;4.70;;;7.00;99.90;;;;;;4954953;28;20100;-79
2023/09/25 03:32:33;;;;;;;5.00;4.47;;;7.00;99.90;;;;;;4955344;28;20494;-81
2023/09/25 03:35:17;;;;;;;5.95;4.97;;;7.00;99.90;;;;;;4973069;28;20049;-80
2023/09/25 03:37:44;;;;;;;6.15;4.85;;;7.00;99.90;;;;;;4958150;28;20466;-80
2023/09/25 03:40:10;;;;;;;6.57;5.68;;;7.00;99.90;;;;;;4977925;28;20039;-80
2023/09/25 03:42:36;;;;;;;7.63;6.00;;;7.00;99.90;;;;;;4953619;28;20039;-79
2023/09/25 03:45:03;;;;;;;5.80;5.20;;;7.00;99.90;;;;;;4966375;28;20114;-82
2023/09/25 03:47:29;;;;;;;8.15;5.90;;;7.10;99.90;;;;;;4937889;28;20094;-81
2023/09/25 03:49:55;;;;;;;7.75;5.75;;;7.00;99.90;;;;;;4938417;28;20121;-79
2023/09/25 03:52:20;;;;;;;5.72;5.13;;;7.10;99.90;;;;;;4955465;28;20111;-80
2023/09/25 03:54:46;;;;;;;6.05;5.28;;;7.10;99.90;;;;;;4955222;28;20031;-80
2023/09/25 03:57:13;;;;;;;5.63;5.07;;;7.00;99.90;;;;;;4953964;28;20664;-79
2023/09/25 03:59:38;;;;;;;5.93;5.35;;;7.00;99.90;;;;;;4971180;28;20166;-80
2023/09/25 04:02:22;;;;;;;6.13;5.10;;;7.00;99.90;;;;;;4973336;28;20558;-80
2023/09/25 04:04:48;;;;;;;5.20;4.70;;;7.00;99.90;;;;;;4952137;28;20034;-83
2023/09/25 04:07:14;;;;;;;7.13;6.13;;;7.00;99.90;;;;;;4957061;28;20034;-80
2023/09/25 04:09:39;;;;;;;6.15;5.38;;;7.00;99.90;;;;;;4971336;28;20031;-82
2023/09/25 04:12:05;;;;;;;6.18;4.97;;;7.00;99.90;;;;;;4949741;28;20093;-81
2023/09/25 04:14:35;;;;;;;7.57;6.30;;;6.90;99.90;;;;;;4942678;28;20035;-81
2023/09/25 04:17:01;;;;;;;6.70;5.68;;;6.90;99.90;;;;;;4940025;28;20042;-82
2023/09/25 04:19:27;;;;;;;9.10;6.55;;;6.90;99.90;;;;;;4972611;28;20027;-81
2023/09/25 04:21:53;;;;;;;6.85;6.13;;;6.90;99.90;;;;;;4971838;28;20042;-82
2023/09/25 04:24:19;;;;;;;7.15;6.30;;;6.90;99.90;;;;;;4970385;28;20621;-79
2023/09/25 04:26:46;;;;;;;7.05;5.70;;;6.90;99.90;;;;;;4954916;28;20076;-80
2023/09/25 04:29:15;;;;;;;7.88;6.72;;;6.80;99.90;;;;;;4969918;28;20039;-81
2023/09/25 04:31:41;;;;;;;7.97;6.22;;;6.80;99.90;;;;;;4973610;28;20049;-83
2023/09/25 04:34:10;;;;;;;8.20;6.40;;;6.80;99.90;;;;;;4954657;28;20518;-83
2023/09/25 04:36:37;;;;;;;6.53;5.93;;;6.80;99.90;;;;;;4954981;28;20094;-83
2023/09/25 04:39:03;;;;;;;8.05;6.07;;;6.80;99.90;;;;;;4954798;28;20142;-80
2023/09/25 04:41:29;;;;;;;6.93;5.60;;;6.80;99.90;;;;;;4974607;28;20030;-82
2023/09/25 04:43:55;;;;;;;7.03;5.80;;;6.70;99.90;;;;;;4954637;28;20031;-83
2023/09/25 04:46:21;;;;;;;7.65;6.28;;;6.70;99.90;;;;;;4972231;28;20042;-83
2023/09/25 04:48:50;;;;;;;5.90;5.30;;;6.70;99.90;;;;;;4973977;28;20118;-81
2023/09/25 04:51:16;;;;;;;7.05;5.70;;;6.70;99.90;;;;;;4978843;28;20090;-81
2023/09/25 04:53:42;;;;;;;6.90;5.43;;;6.70;99.90;;;;;;4956034;28;20208;-85
2023/09/25 04:56:10;;;;;;;10.65;5.38;;;6.70;99.90;;;;;;4973415;28;20114;-82
2023/09/25 04:58:36;;;;;;;6.00;5.10;;;6.70;99.90;;;;;;4973988;28;20272;-82
2023/09/25 05:01:02;;;;;;;7.35;5.38;;;6.70;99.90;;;;;;4942911;28;20043;-83
2023/09/25 05:03:28;;;;;;;7.28;5.90;;;6.70;99.90;;;;;;4970437;28;20106;-81
2023/09/25 05:05:53;;;;;;;6.20;5.55;;;6.70;99.90;;;;;;4974487;28;20050;-81
2023/09/25 05:08:19;;;;;;;8.60;6.68;;;6.70;99.90;;;;;;4947654;29;20070;-83
2023/09/25 05:10:45;;;;;;;8.95;5.90;;;6.70;99.90;;;;;;4935945;28;20032;-84
2023/09/25 05:13:11;;;;;;;7.07;5.75;;;6.70;99.90;;;;;;4971484;28;20604;-81
2023/09/25 05:15:37;;;;;;;8.40;6.82;;;6.60;99.90;;;;;;4957136;28;20043;-81
2023/09/25 05:18:03;;;;;;;7.43;5.68;;;6.60;99.90;;;;;;4953907;28;20042;-81
2023/09/25 05:20:29;;;;;;;6.78;5.72;;;6.70;99.90;;;;;;4971327;28;20037;-81
2023/09/25 05:22:56;;;;;;;6.82;5.45;;;6.60;99.90;;;;;;4955565;28;20023;-83
2023/09/25 05:25:23;;;;;;;6.40;5.22;;;6.60;99.90;;;;;;4957367;28;20030;-82
2023/09/25 05:27:51;;;;;;;9.10;5.45;;;6.70;99.90;;;;;;4973378;28;20061;-83
2023/09/25 05:30:18;;;;;;;7.70;5.60;;;6.60;99.90;;;;;;4958116;28;20046;-82
2023/09/25 05:32:46;;;;;;;7.88;5.65;;;6.70;99.90;;;;;;4973657;28;20023;-82
2023/09/25 05:35:12;;;;;;;7.35;5.95;;;6.70;99.90;;;;;;4969953;28;20094;-82
2023/09/25 05:37:39;;;;;;;10.18;6.03;;;6.70;99.90;;;;;;4973193;28;20781;-80
2023/09/25 05:40:23;;;;;;;12.30;6.30;;;6.70;99.90;;;;;;4973452;28;20053;-83
2023/09/25 05:42:50;;;;;;;9.10;7.05;;;6.80;99.90;;;;;;4954649;28;20039;-82
2023/09/25 05:45:18;;;;;;;10.10;7.13;;;6.80;99.90;;;;;;4965334;28;20027;-82
2023/09/25 05:47:44;;;;;;;8.73;7.03;;;6.80;99.90;;;;;;4972384;28;20039;-82
2023/09/25 05:50:11;;;;;;;9.10;7.45;;;6.90;99.90;;;;;;4952569;28;20381;-80
2023/09/25 05:52:38;;;;;;;10.05;6.95;;;7.00;99.90;;;;;;4971318;28;20086;-81
2023/09/25 05:55:06;;;;;;;6.95;6.10;;;7.10;99.90;;;;;;4968671;28;20110;-83
2023/09/25 05:57:33;;;;;;;7.82;6.20;;;7.20;99.90;;;;;;4940447;28;20049;-84
2023/09/25 06:00:10;;;;;;;7.57;6.78;;;7.30;99.90;;;;;;4973569;28;20031;-83
2023/09/25 06:02:36;;;;;;;8.07;6.57;;;7.40;99.90;;;;;;4974897;28;20034;-83
2023/09/25 06:05:03;;;;;;;6.80;5.30;;;7.50;99.90;;;;;;4975202;28;20316;-81
2023/09/25 06:07:30;;;;;;;4.35;3.97;;;7.60;99.90;;;;;;4958882;28;20038;-80
2023/09/25 06:09:55;;;;;;;4.65;3.90;;;7.80;99.90;;;;;;4975226;28;20042;-81
2023/09/25 06:12:21;;;;;;;8.20;5.32;;;8.10;99.90;;;;;;4973368;28;20031;-80
2023/09/25 06:14:47;;;;;;;9.27;5.47;;;8.30;99.90;;;;;;4968469;28;20408;-82
2023/09/25 06:17:15;;;;;;;8.43;5.80;;;8.50;99.90;;;;;;4976488;28;20031;-81
2023/09/25 06:19:41;;;;;;;9.30;5.57;;;8.70;99.90;;;;;;4948358;28;20054;-82
2023/09/25 06:22:07;;;;;;;6.35;5.40;;;8.80;99.90;;;;;;4975312;28;20081;-80
2023/09/25 06:24:34;;;;;;;6.88;5.50;;;9.00;99.90;;;;;;4926987;28;20054;-80
2023/09/25 06:27:00;;;;;;;7.95;6.18;;;9.20;99.90;;;;;;4975451;28;20034;-81
2023/09/25 06:29:25;;;;;;;7.55;6.65;;;9.40;99.90;;;;;;4968283;28;20038;-80
2023/09/25 06:31:51;;;;;;;10.50;5.70;;;9.60;99.90;;;;;;4956980;28;20027;-81
2023/09/25 06:34:17;;;;;;;7.03;4.93;;;9.80;99.90;;;;;;4974683;28;20769;-83
2023/09/25 06:36:42;;;;;;;6.03;4.90;;;10.00;99.90;;;;;;4975098;28;20031;-82
2023/09/25 06:39:09;;;;;;;7.35;4.57;;;10.30;99.90;;;;;;4956809;28;20125;-82
2023/09/25 06:41:36;;;;;;;6.60;4.70;;;10.50;99.90;;;;;;4976195;28;20078;-83
2023/09/25 06:44:07;;;;;;;18.10;7.43;;;10.70;99.90;;;;;;4973874;28;20066;-79
2023/09/25 06:46:33;;;;;;;7.15;5.45;;;10.80;99.90;;;;;;4954476;28;20122;-80
2023/09/25 06:49:00;;;;;;;6.95;5.68;;;11.00;99.90;;;;;;4967712;28;20030;-80
2023/09/25 06:51:30;;;;;;;5.75;4.90;;;11.30;99.90;;;;;;4962655;28;20069;-78
2023/09/25 06:53:56;;;;;;;5.45;4.78;;;11.40;99.90;;;;;;4970024;28;20030;-80
2023/09/25 06:56:22;;;;;;;4.70;4.30;;;11.70;99.90;;;;;;4977693;28;20081;-81
2023/09/25 06:58:48;;;;;;;5.10;4.40;;;11.80;99.90;;;;;;4976581;28;20306;-79
2023/09/25 07:01:14;;;;;;;5.25;4.70;;;11.80;99.90;;;;;;4955208;28;20115;-80
2023/09/25 07:03:39;;;;;;;5.28;4.60;;;12.00;99.90;;;;;;4975586;28;20110;-82
2023/09/25 07:06:05;;;;;;;6.35;5.55;;;12.10;99.90;;;;;;4978029;28;20026;-81
2023/09/25 07:08:32;;;;;;;5.38;4.88;;;12.20;99.90;;;;;;4977381;28;20174;-81
2023/09/25 07:10:58;;;;;;;5.40;4.88;;;12.40;99.90;;;;;;4973966;28;20041;-80
2023/09/25 07:13:24;;;;;;;9.93;5.47;;;12.60;99.90;;;;;;4975316;28;20031;-81
2023/09/25 07:15:50;;;;;;;5.70;4.72;;;12.70;99.90;;;;;;4975778;28;20042;-80
2023/09/25 07:18:19;;;;;;;6.00;4.65;;;12.80;99.90;;;;;;4953178;28;20039;-81
2023/09/25 07:20:52;;;;;;;4.47;4.07;;;12.90;99.90;;;;;;4974483;28;20052;-82
2023/09/25 07:23:18;;;;;;;5.20;4.70;;;13.00;99.90;;;;;;4975486;28;20047;-82
2023/09/25 07:25:44;;;;;;;7.07;4.82;;;13.00;99.90;;;;;;4966922;28;20096;-81
2023/09/25 07:28:11;;;;;;;5.07;4.60;;;13.00;99.90;;;;;;4968110;28;20097;-81
2023/09/25 07:30:42;;;;;;;5.97;4.40;;;13.00;99.90;;;;;;4951002;28;20070;-81
2023/09/25 07:33:08;;;;;;;4.90;4.50;;;13.10;99.90;;;;;;4967556;28;20042;-81
2023/09/25 07:35:34;;;;;;;5.13;4.63;;;13.10;99.90;;;;;;4958936;28;20029;-81
2023/09/25 07:38:00;;;;;;;4.30;4.00;;;13.10;99.90;;;;;;4951717;28;20027;-83
2023/09/25 07:40:26;;;;;;;6.13;4.70;;;13.20;99.90;;;;;;4959801;28;20448;-80
2023/09/25 07:42:52;;;;;;;5.35;4.55;;;13.30;99.90;;;;;;4970406;28;20125;-81
2023/09/25 07:45:22;;;;;;;6.53;4.80;;;13.30;99.90;;;;;;4967441;28;20561;-82
2023/09/25 07:47:48;;;;;;;4.55;4.15;;;13.40;99.90;;;;;;4968348;28;20126;-80
2023/09/25 07:50:14;;;;;;;5.40;4.47;;;13.40;99.90;;;;;;4964838;28;20034;-81
2023/09/25 07:52:40;;;;;;;5.57;4.93;;;13.50;99.90;;;;;;4953696;28;20019;-81
2023/09/25 07:55:10;;;;;;;7.43;4.80;;;13.60;99.90;;;;;;4970921;28;20143;-81
2023/09/25 07:57:39;;;;;;;5.38;4.72;;;13.70;99.90;;;;;;4967044;28;20035;-80
2023/09/25 08:00:44;;;;;;;6.82;5.20;;;13.80;99.90;;;;;;4964850;28;20126;-81
2023/09/25 08:02:59;;;;;;;6.47;5.50;;;13.80;99.90;;;;;;4969706;28;20042;-80
2023/09/25 08:05:28;;;;;;;5.38;4.78;;;13.80;99.90;;;;;;4964902;28;20134;-81
2023/09/25 08:07:54;;;;;;;5.80;4.68;;;13.90;99.90;;;;;;4955943;28;20034;-78
2023/09/25 08:10:20;;;;;;;8.30;5.13;;;14.00;99.90;;;;;;4955671;28;20031;-82
2023/09/25 08:12:46;;;;;;;6.35;4.90;;;14.10;99.90;;;;;;4968653;28;20808;-80
2023/09/25 08:15:12;;;;;;;9.27;5.47;;;14.20;99.90;;;;;;4968622;28;20027;-81
2023/09/25 08:17:42;;;;;;;8.05;5.22;;;14.30;99.90;;;;;;4968638;28;20030;-81
2023/09/25 08:20:14;;;;;;;7.78;5.00;;;14.40;99.90;;;;;;4966902;28;21001;-82
2023/09/25 08:22:43;;;;;;;5.82;4.30;;;14.50;99.90;;;;;;4963257;28;20034;-83
2023/09/25 08:25:09;;;;;;;6.18;5.15;;;14.60;99.90;;;;;;4948936;28;20030;-82
2023/09/25 08:27:37;;;;;;;7.88;4.75;;;14.60;99.90;;;;;;4944693;28;20711;-81
2023/09/25 08:30:04;;;;;;;10.63;5.50;;;14.70;99.90;;;;;;4963698;28;20066;-80
2023/09/25 08:32:31;;;;;;;6.85;4.75;;;14.80;99.90;;;;;;4939799;28;20039;-80
2023/09/25 08:35:00;;;;;;;7.72;5.45;;;14.80;99.90;;;;;;4968469;28;20059;-81
2023/09/25 08:37:26;;;;;;;5.55;4.63;;;14.80;99.90;;;;;;4968934;28;20117;-82
2023/09/25 08:39:53;;;;;;;4.82;4.05;;;14.80;99.90;;;;;;4965153;28;20543;-80
2023/09/25 08:42:24;;;;;;;7.07;6.35;;;14.80;99.90;;;;;;4945199;28;20046;-80
2023/09/25 08:44:57;;;;;;;6.53;5.53;;;14.90;99.90;;;;;;4951518;28;21071;-79
2023/09/25 08:47:24;;;;;;;8.48;5.57;;;15.00;99.90;;;;;;4969835;28;20085;-79
2023/09/25 08:49:51;;;;;;;7.63;4.90;;;15.00;99.90;;;;;;4964138;28;20030;-79
2023/09/25 08:52:17;;;;;;;8.80;5.20;;;15.10;99.90;;;;;;4968698;28;20122;-79
2023/09/25 08:54:43;;;;;;;7.65;4.53;;;15.20;99.90;;;;;;4959205;28;20047;-78
2023/09/25 08:57:10;;;;;;;4.93;3.58;;;15.30;99.90;;;;;;4972135;28;20019;-79
2023/09/25 08:59:38;;;;;;;5.72;3.72;;;15.40;99.90;;;;;;4962045;28;20035;-79
2023/09/25 09:02:08;;;;;;;8.50;3.95;;;15.50;99.90;;;;;;4968537;28;20027;-78
2023/09/25 09:04:35;;;;;;;3.88;3.58;;;15.60;99.90;;;;;;4956976;28;20543;-79
2023/09/25 09:07:04;;;;;;;8.77;4.28;;;15.60;99.90;;;;;;4955823;28;20035;-77
2023/09/25 09:09:29;;;;;;;4.13;3.58;;;15.70;99.90;;;;;;4948773;28;20023;-77
2023/09/25 09:11:57;;;;;;;10.43;3.70;;;15.70;99.90;;;;;;4950063;28;20439;-78
2023/09/25 09:14:36;;;;;;;4.95;3.47;;;15.70;99.90;;;;;;4970077;28;20031;-78
2023/09/25 09:17:09;;;;;;;4.22;3.55;;;15.80;99.90;;;;;;4955386;28;20167;-78
2023/09/25 09:19:39;;;;;;;3.38;3.08;;;15.90;99.90;;;;;;4962100;28;20573;-79
2023/09/25 09:22:08;;;;;;;3.42;3.13;;;16.00;99.90;;;;;;4963665;28;20419;-80
2023/09/25 09:24:38;;;;;;;3.83;2.67;;;16.10;99.90;;;;;;4963170;28;20035;-79
2023/09/25 09:27:07;;;;;;;4.68;3.20;;;16.10;99.90;;;;;;4971026;28;20093;-78
2023/09/25 09:29:37;;;;;;;3.72;2.90;;;16.10;99.90;;;;;;4964424;28;20098;-78
2023/09/25 09:32:06;;;;;;;3.25;2.95;;;16.10;99.90;;;;;;4952714;28;20089;-77
2023/09/25 09:34:33;;;;;;;3.95;2.58;;;16.30;99.90;;;;;;4961479;28;20027;-79
2023/09/25 09:36:59;;;;;;;4.13;2.00;;;16.40;99.90;;;;;;4979900;28;20495;-79
2023/09/25 09:39:37;;;;;;;4.00;2.17;;;16.50;99.90;;;;;;4956938;28;20444;-79
2023/09/25 09:42:07;;;;;;;4.03;2.38;;;16.50;99.90;;;;;;4975571;28;20113;-78
2023/09/25 09:44:43;;;;;;;2.42;2.20;;;16.50;99.90;;;;;;4969624;28;20037;-81
2023/09/25 09:47:08;;;;;;;2.50;2.05;;;16.50;99.90;;;;;;4969685;28;20051;-80
2023/09/25 09:49:41;;;;;;;4.10;2.55;;;16.60;99.90;;;;;;4962980;28;20038;-79
2023/09/25 09:52:08;;;;;;;2.58;2.25;;;16.70;99.90;;;;;;4979031;28;20106;-80
2023/09/25 09:54:41;;;;;;;1.85;1.70;;;16.80;99.90;;;;;;4960804;28;20154;-80
2023/09/25 09:57:08;;;;;;;3.55;2.55;;;16.90;99.90;;;;;;4974258;28;20029;-80
2023/09/25 09:59:34;;;;;;;3.08;2.20;;;16.90;99.90;;;;;;4955299;28;20062;-80
2023/09/25 10:02:03;;;;;;;4.22;2.88;;;16.80;99.90;;;;;;4955715;28;20802;-80
2023/09/25 10:04:29;;;;;;;2.80;2.22;;;16.90;99.90;;;;;;4967751;28;20081;-81
2023/09/25 10:07:04;;;;;;;5.38;3.83;;;17.00;99.90;;;;;;4939009;28;20077;-81
2023/09/25 10:09:32;;;;;;;4.73;2.80;;;16.90;99.90;;;;;;4974647;28;20039;-79
2023/09/25 10:11:58;;;;;;;2.33;2.15;;;16.90;99.90;;;;;;4976847;28;20058;-80
2023/09/25 10:14:29;;;;;;;4.32;2.22;;;16.90;99.90;;;;;;4980513;28;20031;-79
2023/09/25 10:17:05;;;;;;;4.47;1.90;;;17.00;99.90;;;;;;4956828;28;20467;-81
2023/09/25 10:19:37;;;;;;;2.30;1.90;;;17.10;99.90;;;;;;4975991;28;20050;-82
2023/09/25 10:22:13;;;;;;;3.03;2.13;;;17.20;99.90;;;;;;4977377;28;20038;-80
2023/09/25 10:24:43;;;;;;;;;;;17.20;99.90;;;;;;4974954;28;20177;-81
2023/09/25 10:27:17;;;;;;;3.97;2.47;;;17.30;99.90;;;;;;4976523;28;19925;-79
2023/09/25 10:30:08;;;;;;;2.67;1.73;;;17.40;99.90;;;;;;4971052;28;20042;-81
2023/09/25 10:32:42;;;;;;;2.63;2.42;;;17.50;99.90;;;;;;4976746;28;20041;-80
2023/09/25 10:35:39;;;;;;;3.05;2.13;;;17.60;99.90;;;;;;4979860;28;20034;-79
2023/09/25 10:38:28;;;;;;;3.10;2.00;;;17.70;99.90;;;;;;4972048;28;20049;-79
2023/09/25 10:40:56;;;;;;;3.00;1.58;;;17.70;99.90;;;;;;4973180;28;20130;-80
2023/09/25 10:43:23;;;;;;;1.92;1.70;;;17.80;99.90;;;;;;4978664;28;20170;-79
2023/09/25 10:45:52;;;;;;;2.50;1.58;;;17.70;99.90;;;;;;4980970;28;20038;-81
2023/09/25 10:48:18;;;;;;;1.40;1.27;;;17.80;99.90;;;;;;4977777;28;20031;-79
2023/09/25 10:50:44;;;;;;;1.35;1.25;;;17.80;99.90;;;;;;4974726;28;20085;-79
2023/09/25 10:53:11;;;;;;;2.70;1.80;;;17.80;99.90;;;;;;4970794;28;20043;-78
2023/09/25 10:55:38;;;;;;;3.25;1.45;;;17.90;99.90;;;;;;4970067;28;20098;-80
2023/09/25 10:58:06;;;;;;;2.70;1.50;;;17.90;99.90;;;;;;4968107;28;20043;-79
2023/09/25 11:00:38;;;;;;;1.50;1.40;;;17.90;99.90;;;;;;4966083;28;20053;-79
2023/09/25 11:03:05;;;;;;;1.60;1.50;;;18.10;99.90;;;;;;4968652;28;20405;-79
2023/09/25 11:05:33;;;;;;;1.40;1.23;;;18.10;99.90;;;;;;4968405;28;20063;-79
2023/09/25 11:08:00;;;;;;;2.67;1.40;;;18.20;99.90;;;;;;4963076;28;20037;-79
2023/09/25 11:10:30;;;;;;;2.85;1.35;;;18.30;99.90;;;;;;4969411;28;20065;-79
2023/09/25 11:12:57;;;;;;;1.27;1.02;;;18.50;99.90;;;;;;4966534;28;20062;-79
2023/09/25 11:15:25;;;;;;;3.92;1.38;;;18.50;99.90;;;;;;4969407;28;20804;-79
2023/09/25 11:17:51;;;;;;;3.22;1.88;;;18.50;99.90;;;;;;4973008;28;20057;-79
2023/09/25 11:20:22;;;;;;;3.15;1.42;;;18.60;99.90;;;;;;4978559;28;20026;-80
2023/09/25 11:22:49;;;;;;;1.35;1.25;;;18.50;99.90;;;;;;4967891;28;20071;-80
2023/09/25 11:25:17;;;;;;;1.40;1.30;;;18.50;99.90;;;;;;4974220;28;20034;-78
2023/09/25 11:27:56;;;;;;;2.88;1.80;;;18.60;99.90;;;;;;4976364;28;20061;-80
2023/09/25 11:30:27;;;;;;;1.30;1.20;;;18.60;99.90;;;;;;4965141;28;20045;-80
2023/09/25 11:32:53;;;;;;;1.42;1.20;;;18.60;99.90;;;;;;4971610;28;20037;-79
2023/09/25 11:35:20;;;;;;;1.58;1.33;;;18.60;99.90;;;;;;4966866;28;20089;-79
2023/09/25 11:38:00;;;;;;;3.35;1.20;;;18.70;99.90;;;;;;4956182;28;20037;-78
2023/09/25 11:40:27;;;;;;;2.00;1.40;;;18.80;99.90;;;;;;4951812;28;20122;-79
2023/09/25 11:42:54;;;;;;;1.00;0.98;;;19.00;99.90;;;;;;4967161;28;20073;-80
2023/09/25 11:45:21;;;;;;;3.28;1.02;;;19.00;99.90;;;;;;4947818;28;20061;-79
2023/09/25 11:47:47;;;;;;;1.23;1.13;;;19.20;99.90;;;;;;4956213;28;20049;-78
2023/09/25 11:50:15;;;;;;;3.85;1.30;;;19.30;99.90;;;;;;4970917;28;20519;-79
2023/09/25 11:52:45;;;;;;;2.85;1.45;;;19.40;99.50;;;;;;4967868;28;20070;-80
2023/09/25 11:55:12;;;;;;;1.23;1.17;;;19.40;98.90;;;;;;4963473;28;20034;-79
2023/09/25 11:57:41;;;;;;;7.50;1.92;;;19.50;99.20;;;;;;4966116;28;20034;-80
2023/09/25 12:00:09;;;;;;;1.80;1.70;;;19.50;99.00;;;;;;4969715;28;20031;-80
2023/09/25 12:02:41;;;;;;;1.13;1.02;;;19.50;99.20;;;;;;4967192;28;20048;-77
2023/09/25 12:05:09;;;;;;;2.38;1.45;;;19.70;98.70;;;;;;4969846;28;20034;-80
2023/09/25 12:07:36;;;;;;;1.30;1.20;;;19.70;98.70;;;;;;4978404;28;20021;-79
2023/09/25 12:10:09;;;;;;;1.92;1.60;;;19.80;97.20;;;;;;4972316;28;20054;-80
2023/09/25 12:12:36;;;;;;;12.27;2.42;;;19.70;97.30;;;;;;4974631;28;20049;-81
2023/09/25 12:15:08;;;;;;;1.45;1.13;;;19.60;97.80;;;;;;4968024;28;20035;-79
2023/09/25 12:17:35;;;;;;;3.00;2.03;;;19.60;99.10;;;;;;4976720;28;20121;-79
2023/09/25 12:20:12;;;;;;;3.03;1.20;;;19.70;98.30;;;;;;4975373;28;20460;-79
2023/09/25 12:22:46;;;;;;;1.90;1.38;;;19.80;97.30;;;;;;4978181;28;20051;-80
2023/09/25 12:25:14;;;;;;;2.60;1.80;;;19.80;98.30;;;;;;4976401;28;20035;-81
2023/09/25 12:27:41;;;;;;;5.38;2.45;;;19.90;98.40;;;;;;4963337;28;20042;-81
2023/09/25 12:30:10;;;;;;;4.07;2.20;;;19.80;97.10;;;;;;4971426;28;20046;-79
2023/09/25 12:32:36;;;;;;;2.75;1.52;;;19.70;97.10;;;;;;4973465;28;20033;-79
2023/09/25 12:35:03;;;;;;;2.60;1.60;;;19.80;97.60;;;;;;4974969;28;20141;-78
2023/09/25 12:37:29;;;;;;;2.00;1.40;;;19.80;97.50;;;;;;4972737;28;20043;-81
2023/09/25 12:39:54;;;;;;;2.63;1.38;;;19.90;97.00;;;;;;4970713;28;20035;-80
2023/09/25 12:42:21;;;;;;;1.83;1.27;;;19.80;98.00;;;;;;4969539;28;20035;-80
2023/09/25 12:44:47;;;;;;;2.45;1.15;;;19.80;96.00;;;;;;4973230;28;20050;-77
2023/09/25 12:47:14;;;;;;;1.38;1.20;;;19.90;96.90;;;;;;4942897;28;20031;-79
2023/09/25 12:49:41;;;;;;;1.38;1.27;;;19.90;98.30;;;;;;4977690;28;20037;-79
2023/09/25 12:52:07;;;;;;;1.80;1.20;;;20.00;99.30;;;;;;4975670;28;20031;-80
2023/09/25 12:54:33;;;;;;;1.20;1.10;;;20.00;98.30;;;;;;4958212;28;20054;-81
2023/09/25 12:56:58;;;;;;;15.48;4.38;;;20.10;96.70;;;;;;4963832;28;20407;-81